Gurleyville, Connecticut
Current Conditions -  °F | °C
As of 4:52 PM on Sunday 21 Dec 2014 (Local Time) from KIJD Reporting Station
Overcast Overcast  
Wind Chill: 30°   Ceiling: 1400
Heat Index: 35°   Visibility: 10mi
Dew Point: 29°   Wind: 6mph
Humidity: 78%   Direction: 20°NNE
Pressure: 30.3"   Gusts: NA
Location:  41.8004°N, 72.2476°W
Report Text: KIJD 212152Z AUTO 02005KT 10SM BKN014 OVC043 02/M02 A3030 RMK AO2 SLP263 T00171017
Loading
Personal Weather Stations






























Interactive Weather Map New forecast layout! Learn more

10-Day Weather Forecast

Advertisements
Track Severe Weather on mobile